createdAt,value
2022-12-25T09:06:08.982Z,13.90
2022-12-25T09:08:41.023Z,17.54
2022-12-25T09:11:13.763Z,12.95
2022-12-25T09:13:42.019Z,14.21
2022-12-25T09:16:12.207Z,20.26
2022-12-25T09:18:40.662Z,24.22
2022-12-25T09:21:11.756Z,25.65
2022-12-25T09:23:39.713Z,26.59
2022-12-25T09:26:10.501Z,25.37
2022-12-25T09:28:37.978Z,27.13
2022-12-25T09:31:06.011Z,24.30
2022-12-25T09:33:33.894Z,17.78
2022-12-25T09:36:04.504Z,17.74
2022-12-25T09:38:32.572Z,16.36
2022-12-25T09:41:34.140Z,14.75
2022-12-25T09:44:10.368Z,13.86
2022-12-25T09:46:50.345Z,14.53
2022-12-25T09:49:24.378Z,13.59
2022-12-25T09:51:58.467Z,14.67
2022-12-25T09:54:39.576Z,16.92
2022-12-25T09:57:11.480Z,19.80
2022-12-25T09:59:39.547Z,19.99
2022-12-25T10:02:44.517Z,19.55
2022-12-25T10:05:41.504Z,20.32
2022-12-25T10:08:17.844Z,20.38
2022-12-25T10:11:13.975Z,25.51
2022-12-25T10:14:20.121Z,23.20
2022-12-25T10:16:47.594Z,25.15
2022-12-25T10:19:40.419Z,22.46
2022-12-25T10:22:27.555Z,24.24
2022-12-25T10:24:57.798Z,25.20
2022-12-25T10:27:35.186Z,26.29
2022-12-25T10:30:17.414Z,27.60
2022-12-25T10:32:46.350Z,28.21
2022-12-25T10:35:17.490Z,28.89
2022-12-25T10:37:48.735Z,29.28
2022-12-25T10:40:23.141Z,28.00
2022-12-25T10:42:59.378Z,27.78
2022-12-25T10:45:26.864Z,23.83
2022-12-25T10:48:07.455Z,28.02
2022-12-25T10:50:43.177Z,27.40
2022-12-25T10:53:19.409Z,26.15
2022-12-25T10:56:05.428Z,24.79
2022-12-25T10:58:34.094Z,24.18
2022-12-25T11:01:05.197Z,25.87
2022-12-25T11:03:47.512Z,29.02
2022-12-25T11:06:26.877Z,26.76
2022-12-25T11:08:59.761Z,26.61
2022-12-25T11:11:29.464Z,26.45
2022-12-25T11:14:00.355Z,29.04
2022-12-25T11:16:35.892Z,27.36
2022-12-25T11:19:26.417Z,27.17
2022-12-25T11:21:56.584Z,24.67
2022-12-25T11:24:29.822Z,24.20
2022-12-25T11:27:00.005Z,25.73
2022-12-25T11:29:36.480Z,26.48
2022-12-25T11:32:07.337Z,26.53
2022-12-25T11:34:43.851Z,26.81
2022-12-25T11:37:15.747Z,24.14
2022-12-25T11:39:43.533Z,24.34
2022-12-25T11:42:29.717Z,26.61
2022-12-25T11:45:06.176Z,27.23
2022-12-25T11:47:51.497Z,28.64
2022-12-25T11:50:38.360Z,27.38
2022-12-25T11:53:15.012Z,28.32
2022-12-25T11:55:57.154Z,28.59
2022-12-25T11:58:41.627Z,28.76
2022-12-25T12:01:22.141Z,28.21
2022-12-25T12:03:49.677Z,28.39
2022-12-25T12:06:29.825Z,26.94
2022-12-25T12:09:09.160Z,26.16
2022-12-25T12:11:44.049Z,27.76
2022-12-25T12:14:46.850Z,25.10
2022-12-25T12:17:17.327Z,22.96
2022-12-25T12:19:46.497Z,21.06
2022-12-25T12:22:19.833Z,20.45
2022-12-25T12:24:58.532Z,19.77
2022-12-25T12:27:36.523Z,19.98
2022-12-25T12:30:06.867Z,21.21
2022-12-25T12:32:34.427Z,22.34
2022-12-25T12:35:22.857Z,24.46
2022-12-25T12:37:55.648Z,26.06
2022-12-25T12:40:36.421Z,24.16
2022-12-25T12:43:05.438Z,21.32
2022-12-25T12:45:36.432Z,20.16
2022-12-25T12:48:17.123Z,20.52
2022-12-25T12:50:44.961Z,19.62
2022-12-25T12:53:24.495Z,17.69
2022-12-25T12:55:53.214Z,16.66
2022-12-25T12:58:35.634Z,16.26
2022-12-25T13:01:30.337Z,16.24
2022-12-25T13:04:09.881Z,15.55
2022-12-25T13:06:46.161Z,15.42
2022-12-25T13:09:34.863Z,15.70
2022-12-25T13:12:08.195Z,15.58
2022-12-25T13:14:37.986Z,15.12
2022-12-25T13:17:07.988Z,14.42
2022-12-25T13:19:37.447Z,14.51
2022-12-25T13:22:06.765Z,16.24
2022-12-25T13:24:36.560Z,18.66
2022-12-25T13:27:23.021Z,20.49
2022-12-25T13:29:50.971Z,20.31
2022-12-25T13:32:24.302Z,21.46
2022-12-25T13:34:52.881Z,20.53
2022-12-25T13:37:24.952Z,17.54
2022-12-25T13:39:58.211Z,17.38
2022-12-25T13:42:32.599Z,19.31
2022-12-25T13:45:08.172Z,19.77
2022-12-25T13:47:38.233Z,18.95
2022-12-25T13:50:20.546Z,18.55
2022-12-25T13:52:48.259Z,17.57
2022-12-25T13:55:21.418Z,17.20
2022-12-25T13:57:55.245Z,17.12
2022-12-25T14:00:38.814Z,16.22
2022-12-25T14:03:15.159Z,15.36
2022-12-25T14:05:43.663Z,15.60
2022-12-25T14:08:23.709Z,15.27
2022-12-25T14:10:52.994Z,14.84
2022-12-25T14:13:24.873Z,14.24
2022-12-25T14:15:53.599Z,14.13
2022-12-25T14:18:23.031Z,13.96
2022-12-25T14:21:35.300Z,13.80
2022-12-25T14:24:03.004Z,13.60
2022-12-25T14:26:33.450Z,13.57
2022-12-25T14:29:15.699Z,13.32
2022-12-25T14:31:46.304Z,13.14
2022-12-25T14:34:27.513Z,13.04
2022-12-25T14:36:55.255Z,12.96
2022-12-25T14:39:29.988Z,12.84
2022-12-25T14:41:57.895Z,12.63
2022-12-25T14:44:40.295Z,12.52
2022-12-25T14:47:10.496Z,12.55
2022-12-25T14:49:39.238Z,12.48
2022-12-25T14:52:18.585Z,12.34
2022-12-25T14:55:00.211Z,12.29
2022-12-25T14:57:37.919Z,12.07
2022-12-25T15:00:20.520Z,12.13
2022-12-25T15:02:51.545Z,11.92
2022-12-25T15:05:34.602Z,11.97
2022-12-25T15:08:13.988Z,11.98
2022-12-25T15:13:30.809Z,11.67
2022-12-25T15:16:00.886Z,11.61
2022-12-25T15:18:34.476Z,11.57
2022-12-25T15:21:02.701Z,11.54
2022-12-25T15:23:30.243Z,11.23
2022-12-25T15:25:57.827Z,11.48
2022-12-25T15:28:25.359Z,11.55
2022-12-25T15:30:52.947Z,11.19
2022-12-25T15:33:20.514Z,10.81
2022-12-25T15:35:48.917Z,10.59
2022-12-25T15:38:16.495Z,10.50
2022-12-25T15:40:44.188Z,10.66
2022-12-25T15:43:39.326Z,10.72
2022-12-25T15:46:02.537Z,10.98
2022-12-25T15:48:30.163Z,10.95
2022-12-25T15:50:57.724Z,10.86
2022-12-25T15:53:26.934Z,10.94
2022-12-25T15:55:54.623Z,10.90
2022-12-25T15:58:23.467Z,10.82
2022-12-25T16:00:50.952Z,10.87
2022-12-25T16:03:18.458Z,10.95
2022-12-25T16:05:46.047Z,10.91
2022-12-25T16:08:13.580Z,10.93
2022-12-25T16:10:41.082Z,10.98
2022-12-25T16:13:08.623Z,10.92
2022-12-25T16:15:36.181Z,11.05
2022-12-25T16:18:03.955Z,11.04
2022-12-25T16:20:32.319Z,11.14
2022-12-25T16:22:59.841Z,11.05
2022-12-25T16:25:27.332Z,10.96
2022-12-25T16:27:54.878Z,10.95
2022-12-25T16:30:22.439Z,10.84
2022-12-25T16:32:50.447Z,10.94
2022-12-25T16:35:17.990Z,11.01
2022-12-25T16:37:45.557Z,10.94
2022-12-25T16:40:13.213Z,10.97
2022-12-25T16:42:40.713Z,10.92
2022-12-25T16:45:08.504Z,10.84
2022-12-25T16:47:36.463Z,10.62
2022-12-25T16:50:06.749Z,10.53
2022-12-25T16:52:35.151Z,10.44
2022-12-25T16:55:04.337Z,10.37
2022-12-25T16:57:33.112Z,10.36
2022-12-25T17:00:00.980Z,10.41
2022-12-25T17:02:28.527Z,10.26
2022-12-25T17:04:56.159Z,10.43
2022-12-25T17:07:23.667Z,10.55
2022-12-25T17:09:51.150Z,10.57
2022-12-25T17:12:18.752Z,10.68
2022-12-25T17:14:46.175Z,10.72
2022-12-25T17:17:13.643Z,10.73
2022-12-25T17:19:41.644Z,10.74
2022-12-25T17:22:09.618Z,10.81
2022-12-25T17:24:39.943Z,10.83
2022-12-25T17:27:09.356Z,10.75
2022-12-25T17:29:39.818Z,10.80
2022-12-25T17:32:10.544Z,10.78
2022-12-25T17:34:38.519Z,10.79
2022-12-25T17:37:06.367Z,10.67
2022-12-25T17:39:34.008Z,10.56
2022-12-25T17:42:01.463Z,10.46
2022-12-25T17:44:29.028Z,10.40
2022-12-25T17:46:56.587Z,10.31
2022-12-25T17:49:24.343Z,10.31
2022-12-25T17:51:53.487Z,10.26
2022-12-25T17:54:21.053Z,10.22
2022-12-25T17:56:49.447Z,10.12
2022-12-25T17:59:18.809Z,10.08
2022-12-25T18:01:48.182Z,10.06
2022-12-25T18:04:15.940Z,10.03
2022-12-25T18:06:43.605Z,10.08
2022-12-25T18:09:11.951Z,10.01
2022-12-25T18:11:41.779Z,9.94
2022-12-25T18:14:13.185Z,9.80
2022-12-25T18:16:43.397Z,9.69
2022-12-25T18:19:11.920Z,9.69
2022-12-25T18:21:39.582Z,9.58
2022-12-25T18:24:08.410Z,9.66
2022-12-25T18:26:36.046Z,9.79
2022-12-25T18:29:03.921Z,9.89
2022-12-25T18:31:31.482Z,9.90
2022-12-25T18:33:59.936Z,9.96
2022-12-25T18:36:28.891Z,10.07
2022-12-25T18:38:57.120Z,10.09
2022-12-25T18:41:25.427Z,10.21
2022-12-25T18:43:55.696Z,10.38
2022-12-25T18:46:25.884Z,10.49
2022-12-25T18:48:56.864Z,10.56
2022-12-25T18:51:26.734Z,10.68
2022-12-25T18:53:58.746Z,10.68
2022-12-25T18:56:26.260Z,10.73
2022-12-25T18:58:53.965Z,10.91
2022-12-25T19:01:23.718Z,10.96
2022-12-25T19:03:57.170Z,10.95
2022-12-25T19:06:32.761Z,10.96
2022-12-25T19:09:00.552Z,10.81
2022-12-25T19:11:28.131Z,10.82
2022-12-25T19:13:56.206Z,10.89
2022-12-25T19:16:23.949Z,10.96
2022-12-25T19:18:51.515Z,10.87
2022-12-25T19:21:19.008Z,10.85
2022-12-25T19:23:46.622Z,11.00
2022-12-25T19:26:14.221Z,10.95
2022-12-25T19:28:41.863Z,10.91
2022-12-25T19:31:10.521Z,10.89
2022-12-25T19:33:41.079Z,10.89
2022-12-25T19:36:13.393Z,11.00
2022-12-25T19:38:41.537Z,10.82
2022-12-25T19:41:12.665Z,10.72
2022-12-25T19:43:42.341Z,10.75
2022-12-25T19:46:31.256Z,10.82
2022-12-25T19:49:04.119Z,10.72
2022-12-25T19:51:37.868Z,10.75
2022-12-25T19:54:06.223Z,10.55
2022-12-25T19:56:34.681Z,10.51
2022-12-25T19:59:02.703Z,10.48
2022-12-25T20:01:30.936Z,10.37
2022-12-25T20:03:58.891Z,10.41
2022-12-25T20:06:29.636Z,10.50
2022-12-25T20:09:01.670Z,10.48
2022-12-25T20:11:31.419Z,10.54
2022-12-25T20:13:59.254Z,10.40
2022-12-25T20:16:27.523Z,10.48
2022-12-25T20:18:56.568Z,10.53
2022-12-25T20:21:27.271Z,10.44
2022-12-25T20:23:55.633Z,10.36
2022-12-25T20:26:30.413Z,10.53
2022-12-25T20:29:07.079Z,10.42
2022-12-25T20:31:35.606Z,10.41
2022-12-25T20:34:08.571Z,10.29
2022-12-25T20:36:37.967Z,10.32
2022-12-25T20:39:09.494Z,10.33
2022-12-25T20:41:38.302Z,10.35
2022-12-25T20:44:08.484Z,10.27
2022-12-25T20:46:36.715Z,10.49
2022-12-25T20:49:04.358Z,10.49
2022-12-25T20:51:31.966Z,10.46
2022-12-25T20:53:59.583Z,10.42
2022-12-25T20:56:27.448Z,10.51
2022-12-25T20:58:56.965Z,10.70
2022-12-25T21:01:25.237Z,10.55
2022-12-25T21:03:53.448Z,10.52
2022-12-25T21:06:22.056Z,10.36
2022-12-25T21:08:49.739Z,10.40
2022-12-25T21:11:18.110Z,10.52
2022-12-25T21:13:47.021Z,10.44
2022-12-25T21:16:20.042Z,10.45
2022-12-25T21:18:50.059Z,10.41
2022-12-25T21:21:18.581Z,10.38
2022-12-25T21:23:46.689Z,10.37
2022-12-25T21:26:23.987Z,10.48
2022-12-25T21:28:54.651Z,10.58
2022-12-25T21:31:23.909Z,10.44
2022-12-25T21:33:53.004Z,10.38
2022-12-25T21:36:24.435Z,10.35
2022-12-25T21:38:56.717Z,10.31
2022-12-25T21:41:25.293Z,10.30
2022-12-25T21:43:53.013Z,10.28
2022-12-25T21:46:21.263Z,10.28
2022-12-25T21:48:48.987Z,10.12
2022-12-25T21:51:37.423Z,10.29
2022-12-25T21:54:06.216Z,10.29
2022-12-25T21:56:41.364Z,10.35
2022-12-25T21:59:13.349Z,10.24
2022-12-25T22:01:41.067Z,10.20
2022-12-25T22:04:09.891Z,10.25
2022-12-25T22:06:56.238Z,10.28
2022-12-25T22:09:24.491Z,10.37
2022-12-25T22:12:11.040Z,10.38
2022-12-25T22:14:54.290Z,10.25
2022-12-25T22:17:50.611Z,10.16
2022-12-25T22:20:23.345Z,10.19
2022-12-25T22:22:51.570Z,10.26
2022-12-25T22:25:20.249Z,10.21
2022-12-25T22:27:48.675Z,10.17
2022-12-25T22:30:19.660Z,10.22
2022-12-25T22:32:48.109Z,10.25
2022-12-25T22:35:16.959Z,10.24
2022-12-25T22:37:45.129Z,10.27
2022-12-25T22:40:17.373Z,10.17
2022-12-25T22:42:44.948Z,10.16
2022-12-25T22:45:16.441Z,10.35
2022-12-25T22:47:44.048Z,10.34
2022-12-25T22:50:14.834Z,10.31
2022-12-25T22:52:43.150Z,10.29
2022-12-25T22:55:10.947Z,10.29
2022-12-25T22:57:38.637Z,10.31
2022-12-25T23:00:08.873Z,10.25
2022-12-25T23:02:36.622Z,10.16
2022-12-25T23:05:04.687Z,10.26
2022-12-25T23:07:32.231Z,10.18
2022-12-25T23:09:59.808Z,10.13
2022-12-25T23:12:45.713Z,10.17
2022-12-25T23:15:13.311Z,9.98
2022-12-25T23:18:19.512Z,10.27
2022-12-25T23:21:05.665Z,10.35
2022-12-25T23:23:51.532Z,10.38
2022-12-25T23:26:20.987Z,10.40
2022-12-25T23:29:06.757Z,10.43
2022-12-25T23:31:38.119Z,10.27
2022-12-25T23:34:06.691Z,10.29
2022-12-25T23:36:34.299Z,10.27
2022-12-25T23:39:08.922Z,10.29
2022-12-25T23:41:39.315Z,10.09
2022-12-25T23:44:08.074Z,10.16
2022-12-25T23:46:35.612Z,9.99
2022-12-25T23:49:03.458Z,9.87
2022-12-25T23:51:31.603Z,10.02
2022-12-25T23:53:59.194Z,10.08
2022-12-25T23:56:26.786Z,9.98
2022-12-25T23:58:54.416Z,9.97
